Terminal Aerodrome Forecast
Issued by NWS

Home | Current Version | Previous Version | Text Only | Print | Product List | Glossary On
Versions: 1 2 3 4 5 6 7 8 9 10 11 12 13 14 15 16
000
FTUS45 KREV 231740
TAFMMH
TAF
KMMH 231740Z 2318/2418 35009KT 6SM -SHSN SCT020 OVC080
     FM231830 31009KT 3SM -SHSN BR FEW010 BKN030
     FM232200 28010KT 6SM -SHSN SCT030 BKN050
     FM240100 26007KT P6SM FEW030 BKN070=

USA.gov is the U.S. government's official web portal to all federal, state and local government web resources and services.